Time;durP1;ratioP1;P1;durP2;ratioP2;P2;SDS_P1;SDS_P2;PMS_P1;PMS_P2;Temp;Humidity;BMP_temperature;BMP_pressure;BME280_temperature;BME280_humidity;BME280_pressure;Samples;Min_cycle;Max_cycle;Signal;HPM_P1;HPM_P2
2023/02/02 00:01:45;;;;;;;31.20;11.70;;;;;;;-1.77;100.00;94262.60;106946;1276;25595;-67
2023/02/02 00:04:25;;;;;;;26.60;10.70;;;;;;;-1.77;100.00;94271.51;106845;1276;25230;-68
2023/02/02 00:06:55;;;;;;;31.00;12.40;;;;;;;-1.78;100.00;94277.93;106873;1276;25347;-69
2023/02/02 00:09:27;;;;;;;26.90;11.50;;;;;;;-1.80;100.00;94294.90;107024;1276;25366;-68
2023/02/02 00:11:58;;;;;;;25.70;10.10;;;;;;;-1.81;100.00;94301.88;106891;1276;25298;-68
2023/02/02 00:14:27;;;;;;;31.80;11.70;;;;;;;-1.81;100.00;94310.56;107022;1275;25270;-69
2023/02/02 00:16:56;;;;;;;28.90;10.70;;;;;;;-1.81;100.00;94318.80;107031;1275;25358;-68
2023/02/02 00:19:26;;;;;;;26.80;10.90;;;;;;;-1.81;100.00;94319.33;107142;1275;25423;-68
2023/02/02 00:21:55;;;;;;;26.90;11.70;;;;;;;-1.80;100.00;94326.19;107072;1275;25268;-68
2023/02/02 00:24:24;;;;;;;31.10;11.20;;;;;;;-1.79;100.00;94334.89;107092;1275;25357;-69
2023/02/02 00:26:57;;;;;;;30.10;11.90;;;;;;;-1.78;100.00;94333.42;107101;1275;22573;-68
2023/02/02 00:29:27;;;;;;;26.20;10.50;;;;;;;-1.77;100.00;94335.61;107113;1275;22984;-68
2023/02/02 00:31:56;;;;;;;28.70;10.60;;;;;;;-1.77;100.00;94336.05;107118;1275;24252;-67
2023/02/02 00:34:24;;;;;;;28.70;11.40;;;;;;;-1.76;100.00;94346.55;107002;1275;23913;-68
2023/02/02 00:36:53;;;;;;;25.70;10.60;;;;;;;-1.75;100.00;94350.16;107079;1275;22528;-67
2023/02/02 00:39:26;;;;;;;23.60;10.00;;;;;;;-1.76;100.00;94357.62;107102;1275;23846;-67
2023/02/02 00:41:55;;;;;;;;;;;;;;;-1.76;100.00;94357.45;107064;1275;25363;-67
2023/02/02 00:47:12;;;;;;;28.50;10.80;;;;;;;-1.76;100.00;94363.44;106109;1275;1002620;-68
2023/02/02 00:49:41;;;;;;;24.60;9.60;;;;;;;-1.75;100.00;94375.20;107049;1275;25455;-68
2023/02/02 00:52:11;;;;;;;26.10;11.20;;;;;;;-1.74;100.00;94370.73;107069;1275;25303;-68
2023/02/02 00:54:40;;;;;;;26.90;11.40;;;;;;;-1.74;100.00;94379.89;107023;1275;25270;-70
2023/02/02 00:57:12;;;;;;;26.30;11.50;;;;;;;-1.74;100.00;94386.83;107093;1275;25349;-67
2023/02/02 00:59:41;;;;;;;28.20;11.70;;;;;;;-1.74;100.00;94392.45;106329;1275;1003181;-68
2023/02/02 01:02:11;;;;;;;25.50;11.10;;;;;;;-1.72;100.00;94393.06;107089;1275;25338;-68
2023/02/02 01:04:40;;;;;;;33.00;10.80;;;;;;;-1.71;100.00;94394.67;107061;1275;25420;-68
2023/02/02 01:07:08;;;;;;;29.50;10.20;;;;;;;-1.69;100.00;94396.08;107061;1275;26513;-67
2023/02/02 01:09:37;;;;;;;27.60;10.70;;;;;;;-1.70;100.00;94392.67;107082;1275;25732;-68
2023/02/02 01:12:09;;;;;;;24.30;10.50;;;;;;;-1.72;100.00;94397.46;107085;1275;25311;-68
2023/02/02 01:14:38;;;;;;;26.60;11.30;;;;;;;-1.70;100.00;94401.14;107008;1275;26511;-68
2023/02/02 01:17:08;;;;;;;26.10;11.10;;;;;;;-1.68;100.00;94408.64;107065;1275;26519;-69
2023/02/02 01:19:37;;;;;;;26.50;10.50;;;;;;;-1.68;100.00;94408.23;106079;1275;1003521;-68
2023/02/02 01:22:06;;;;;;;25.70;10.60;;;;;;;-1.68;100.00;94414.34;106096;1275;1003443;-67
2023/02/02 01:24:35;;;;;;;25.90;11.10;;;;;;;-1.67;100.00;94429.60;106062;1275;1003014;-68
2023/02/02 01:27:04;;;;;;;28.00;10.80;;;;;;;-1.67;100.00;94437.81;106964;1275;25347;-69
2023/02/02 01:29:33;;;;;;;25.30;10.50;;;;;;;-1.65;100.00;94461.95;106168;1275;1003657;-68
2023/02/02 01:32:02;;;;;;;29.60;11.60;;;;;;;-1.62;100.00;94515.13;107059;1275;22523;-68
2023/02/02 01:34:31;;;;;;;25.00;10.80;;;;;;;-1.62;100.00;94532.13;107073;1275;25249;-68
2023/02/02 01:37:01;;;;;;;23.30;10.50;;;;;;;-1.63;100.00;94550.84;106323;1275;1003594;-68
2023/02/02 01:39:29;;;;;;;24.20;9.90;;;;;;;-1.64;100.00;94559.90;106294;1275;1003478;-68
2023/02/02 01:41:59;;;;;;;25.30;10.90;;;;;;;-1.62;100.00;94565.13;107121;1275;25378;-70
2023/02/02 01:45:05;;;;;;;25.80;10.70;;;;;;;-1.63;100.00;94578.75;107088;1275;26520;-68
2023/02/02 01:47:50;;;;;;;23.40;9.90;;;;;;;-1.64;100.00;94570.85;106371;1275;1002985;-69
2023/02/02 01:50:21;;;;;;;24.40;10.40;;;;;;;-1.64;100.00;94583.92;107012;1275;22751;-68
2023/02/02 01:52:52;;;;;;;26.80;13.50;;;;;;;-1.64;100.00;94600.92;107014;1275;22725;-67
2023/02/02 01:55:23;;;;;;;27.20;13.90;;;;;;;-1.64;100.00;94612.21;106999;1275;25492;-69
2023/02/02 01:58:10;;;;;;;25.30;11.10;;;;;;;-1.64;100.00;94623.64;106345;1275;1015795;-67
2023/02/02 02:00:38;;;;;;;23.60;9.30;;;;;;;-1.63;100.00;94622.30;107053;1275;25353;-68
2023/02/02 02:03:11;;;;;;;25.40;10.00;;;;;;;-1.63;100.00;94628.73;107083;1274;25246;-67
2023/02/02 02:05:43;;;;;;;22.70;9.90;;;;;;;-1.61;100.00;94633.15;106973;1275;25341;-68
2023/02/02 02:08:16;;;;;;;21.10;9.40;;;;;;;-1.60;100.00;94641.92;106321;1275;1003706;-67
2023/02/02 06:19:32;;;;;;;40.80;15.70;;;;;;;-1.17;100.00;93978.45;104569;1301;557807;-67
2023/02/02 06:22:00;;;;;;;33.00;12.50;;;;;;;-0.95;100.00;93701.42;106314;1287;218403;-70
2023/02/02 06:24:29;;;;;;;41.40;14.90;;;;;;;-0.84;100.00;93934.59;105829;1287;1002858;-69
2023/02/02 06:26:58;;;;;;;34.20;12.90;;;;;;;-0.82;100.00;94093.64;106458;1287;22531;-67
2023/02/02 06:29:27;;;;;;;37.90;12.90;;;;;;;-0.81;100.00;94212.69;105782;1287;1003561;-68
2023/02/02 06:31:56;;;;;;;34.70;13.20;;;;;;;-0.79;100.00;94298.67;105764;1287;1003819;-67
2023/02/02 06:34:24;;;;;;;30.30;11.40;;;;;;;-0.78;100.00;94373.93;105695;1285;1002720;-69
2023/02/02 06:36:53;;;;;;;37.10;12.00;;;;;;;-0.77;100.00;94431.86;105662;1282;1002759;-67
2023/02/02 06:39:22;;;;;;;35.50;12.90;;;;;;;-0.76;100.00;94479.88;105621;1288;1003337;-67
2023/02/02 06:41:51;;;;;;;35.70;12.40;;;;;;;-0.74;100.00;94529.39;105596;1288;1002806;-68
2023/02/02 06:44:19;;;;;;;33.00;12.50;;;;;;;-0.71;100.00;94561.49;105781;1282;1002947;-68
2023/02/02 06:46:48;;;;;;;34.90;11.60;;;;;;;-0.68;100.00;94594.84;106449;1285;25255;-68
2023/02/02 06:49:17;;;;;;;41.60;14.60;;;;;;;-0.66;100.00;94620.52;105748;1281;1005282;-69
2023/02/02 06:51:47;;;;;;;40.00;14.60;;;;;;;-0.66;100.00;94647.15;105905;1282;1003550;-70
2023/02/02 06:54:17;;;;;;;36.50;13.80;;;;;;;-0.64;100.00;94660.34;106580;1288;22526;-70
2023/02/02 06:56:46;;;;;;;37.00;12.80;;;;;;;-0.62;100.00;94674.58;106516;1288;26537;-69
2023/02/02 06:59:14;;;;;;;41.50;14.90;;;;;;;-0.60;100.00;94688.70;106495;1285;22536;-69
2023/02/02 07:01:43;;;;;;;38.70;14.70;;;;;;;-0.60;100.00;94709.13;106219;1283;26599;-68
2023/02/02 07:04:12;;;;;;;36.00;13.30;;;;;;;-0.57;100.00;94719.54;106198;1285;25363;-68
2023/02/02 07:06:41;;;;;;;32.60;12.60;;;;;;;-0.54;100.00;94728.46;105364;1283;1002650;-70
2023/02/02 07:09:09;;;;;;;34.20;14.70;;;;;;;-0.51;100.00;94745.55;106172;1283;22538;-68
2023/02/02 07:11:38;;;;;;;31.90;13.70;;;;;;;-0.49;100.00;94761.89;106176;1282;22540;-72
2023/02/02 07:14:13;;;;;;;35.70;14.10;;;;;;;-0.46;100.00;94770.65;106161;1285;25514;-69
2023/02/02 07:16:43;;;;;;;36.20;13.60;;;;;;;-0.44;100.00;94787.15;106167;1282;25514;-68
2023/02/02 07:19:12;;;;;;;31.30;13.50;;;;;;;-0.43;100.00;94806.11;105945;1288;22554;-69
2023/02/02 07:21:41;;;;;;;30.60;11.90;;;;;;;-0.42;100.00;94804.98;106016;1284;23923;-68
2023/02/02 07:24:10;;;;;;;30.30;13.00;;;;;;;-0.41;100.00;94811.54;105945;1289;25317;-69
2023/02/02 07:26:39;;;;;;;30.20;13.10;;;;;;;-0.40;100.00;94824.13;106018;1289;25418;-71
2023/02/02 07:29:13;;;;;;;27.00;12.80;;;;;;;-0.42;100.00;94836.13;105303;1283;1003721;-70
2023/02/02 07:31:42;;;;;;;27.80;12.20;;;;;;;-0.41;100.00;94846.77;106049;1288;25370;-71
2023/02/02 07:34:11;;;;;;;40.30;16.20;;;;;;;-0.39;100.00;94864.58;106107;1288;25444;-73
2023/02/02 07:36:41;;;;;;;33.00;13.10;;;;;;;-0.37;100.00;94869.13;106055;1285;25348;-68
2023/02/02 07:39:10;;;;;;;31.00;13.40;;;;;;;-0.37;100.00;94890.27;106029;1285;22530;-68
2023/02/02 07:41:39;;;;;;;33.30;13.20;;;;;;;-0.37;100.00;94893.94;106000;1282;26602;-71
2023/02/02 07:44:15;;;;;;;43.10;21.20;;;;;;;-0.38;100.00;94908.27;105389;1289;1002838;-70
2023/02/02 07:46:45;;;;;;;35.80;16.30;;;;;;;-0.40;100.00;94929.20;106006;1288;25338;-71
2023/02/02 07:49:16;;;;;;;38.40;16.90;;;;;;;-0.38;100.00;94941.92;106059;1281;24306;-70
2023/02/02 07:51:47;;;;;;;34.60;16.50;;;;;;;-0.36;100.00;94947.48;106105;1288;25283;-68
2023/02/02 07:54:16;;;;;;;35.80;14.70;;;;;;;-0.36;100.00;94951.12;106036;1288;26695;-69
2023/02/02 07:56:45;;;;;;;28.30;12.80;;;;;;;-0.35;100.00;94963.23;106044;1288;26623;-69
2023/02/02 07:59:14;;;;;;;26.00;11.20;;;;;;;-0.35;100.00;94968.54;106112;1288;22550;-68
2023/02/02 08:01:44;;;;;;;26.70;12.40;;;;;;;-0.32;100.00;94974.08;106077;1289;23909;-72
2023/02/02 08:04:16;;;;;;;26.30;12.30;;;;;;;-0.29;100.00;94971.55;106307;1282;25591;-72
2023/02/02 08:06:44;;;;;;;27.30;11.70;;;;;;;-0.26;100.00;94979.92;106892;1280;25509;-72
2023/02/02 08:09:13;;;;;;;28.30;12.40;;;;;;;-0.21;100.00;94978.14;106777;1280;22523;-68
2023/02/02 08:32:21;;;;;;;25.80;10.70;;;;;;;0.23;100.00;94863.70;106886;1278;25344;-69
2023/02/02 08:34:54;;;;;;;29.70;12.80;;;;;;;0.36;100.00;94890.12;106811;1278;26656;-70
2023/02/02 08:37:23;;;;;;;28.80;12.70;;;;;;;0.43;100.00;94895.16;106149;1278;1003296;-70
2023/02/02 08:39:51;;;;;;;30.10;14.30;;;;;;;0.53;100.00;94887.75;105999;1278;1003154;-73
2023/02/02 08:42:20;;;;;;;29.40;15.10;;;;;;;0.64;100.00;94880.48;106869;1275;24275;-71
2023/02/02 08:44:49;;;;;;;26.30;12.70;;;;;;;0.78;100.00;94866.52;106785;1278;25407;-71
2023/02/02 08:47:40;;;;;;;26.80;12.00;;;;;;;0.81;100.00;94860.04;107021;1278;24269;-69
2023/02/02 08:50:11;;;;;;;27.50;12.50;;;;;;;0.78;100.00;94885.59;106636;1278;25271;-69
2023/02/02 08:52:42;;;;;;;37.00;18.00;;;;;;;0.79;100.00;94900.02;106855;1278;25408;-69
2023/02/02 08:55:14;;;;;;;29.90;13.90;;;;;;;0.81;100.00;94906.66;106799;1278;22585;-70
2023/02/02 08:57:45;;;;;;;26.40;12.10;;;;;;;0.82;100.00;94906.20;106863;1278;25211;-68
2023/02/02 09:00:18;;;;;;;23.80;10.80;;;;;;;0.79;100.00;94909.16;106760;1278;23892;-70
2023/02/02 09:02:50;;;;;;;26.90;12.30;;;;;;;0.76;100.00;94919.86;106798;1273;22575;-68
2023/02/02 09:05:22;;;;;;;25.30;12.70;;;;;;;0.75;100.00;94923.67;106792;1278;22529;-69
2023/02/02 09:07:53;;;;;;;25.10;12.00;;;;;;;0.75;100.00;94931.75;106847;1273;26510;-70
2023/02/02 09:10:24;;;;;;;25.60;11.80;;;;;;;0.69;100.00;94943.59;106833;1278;22540;-70
2023/02/02 09:12:55;;;;;;;24.90;12.10;;;;;;;0.71;100.00;94947.52;106719;1276;25310;-70
2023/02/02 09:15:27;;;;;;;;;;;;;;;0.79;100.00;94935.60;106185;1275;1003708;-69
2023/02/02 09:17:58;;;;;;;32.20;15.10;;;;;;;0.91;100.00;94923.03;107115;1275;22530;-69
2023/02/02 09:20:30;;;;;;;34.80;16.10;;;;;;;0.97;100.00;94914.73;106438;1275;1002824;-70
2023/02/02 09:23:02;;;;;;;30.10;15.00;;;;;;;0.94;100.00;94925.48;107141;1273;25294;-68
2023/02/02 09:25:34;;;;;;;26.20;11.00;;;;;;;0.99;100.00;94919.30;107065;1270;26283;-70
2023/02/02 09:28:05;;;;;;;24.50;12.10;;;;;;;1.13;100.00;94897.91;107093;1275;22522;-70
2023/02/02 09:30:37;;;;;;;24.50;12.10;;;;;;;1.20;100.00;94893.14;107035;1273;22548;-73
2023/02/02 09:33:09;;;;;;;26.10;12.10;;;;;;;1.22;100.00;94895.17;106952;1276;24305;-70
2023/02/02 09:35:43;;;;;;;27.60;13.30;;;;;;;1.22;100.00;94903.09;107183;1276;25415;-67
2023/02/02 09:38:14;;;;;;;27.10;11.90;;;;;;;1.21;100.00;94910.30;107182;1272;22762;-71
2023/02/02 09:40:42;;;;;;;25.50;12.10;;;;;;;1.19;100.00;94922.54;107199;1276;22604;-72
2023/02/02 09:43:33;;;;;;;23.90;10.90;;;;;;;1.12;100.00;94937.48;106934;1276;22998;-72
2023/02/02 09:46:11;;;;;;;33.00;14.50;;;;;;;1.02;100.00;94947.23;106902;1276;23610;-69
2023/02/02 09:49:06;;;;;;;21.20;10.50;;;;;;;0.96;100.00;94967.20;106961;1270;22549;-72
2023/02/02 09:51:39;;;;;;;27.30;11.90;;;;;;;0.96;100.00;94968.44;106940;1272;24310;-72
2023/02/02 09:54:13;;;;;;;;;;;;;;;1.00;100.00;94979.03;107012;1276;22621;-69
2023/02/02 09:56:43;;;;;;;22.70;9.50;;;;;;;1.00;100.00;94986.19;107008;1276;22531;-70
2023/02/02 09:59:23;;;;;;;19.60;8.80;;;;;;;1.01;100.00;94990.83;106923;1276;22527;-68
2023/02/02 10:01:57;;;;;;;21.70;10.10;;;;;;;1.02;100.00;94991.77;106929;1276;22510;-69
2023/02/02 10:04:25;;;;;;;18.90;9.50;;;;;;;1.04;100.00;94991.67;106347;1276;1003311;-70
2023/02/02 10:06:56;;;;;;;21.50;10.10;;;;;;;1.07;100.00;94991.87;106916;1263;22548;-70
2023/02/02 10:09:54;;;;;;;19.90;9.60;;;;;;;1.12;100.00;94988.04;106790;1276;25431;-71
2023/02/02 10:12:35;;;;;;;21.30;10.30;;;;;;;1.12;100.00;94982.64;106007;1270;1003215;-69
2023/02/02 10:15:22;;;;;;;19.70;8.80;;;;;;;1.10;100.00;94994.20;107042;1270;25508;-68
2023/02/02 10:18:42;;;;;;;21.20;9.90;;;;;;;1.08;100.00;94991.39;106931;1276;25470;-68
2023/02/02 10:21:17;;;;;;;19.40;8.70;;;;;;;1.08;100.00;94990.23;105583;1285;1002958;-69
2023/02/02 10:23:46;;;;;;;19.80;9.50;;;;;;;1.13;100.00;94997.56;106103;1284;25565;-69
2023/02/02 10:27:28;;;;;;;82.20;28.20;;;;;;;1.16;100.00;95003.48;105974;1285;25385;-69
2023/02/02 10:30:01;;;;;;;26.10;11.50;;;;;;;1.19;100.00;94970.80;106418;1280;25514;-67
2023/02/02 10:33:36;;;;;;;21.60;10.40;;;;;;;1.23;100.00;94990.14;106591;1276;22646;-67
2023/02/02 10:36:16;;;;;;;20.50;8.80;;;;;;;1.25;100.00;94962.04;107057;1270;25446;-66
2023/02/02 10:38:59;;;;;;;18.70;9.10;;;;;;;1.34;100.00;94964.19;106118;1276;1003370;-67
2023/02/02 10:41:57;;;;;;;23.70;10.80;;;;;;;1.49;100.00;94951.25;106290;1275;1002851;-67
2023/02/02 10:44:40;;;;;;;19.80;9.50;;;;;;;1.55;100.00;94946.63;106977;1275;25303;-65
2023/02/02 10:47:11;;;;;;;21.40;9.80;;;;;;;1.56;100.00;94952.83;106800;1275;25361;-66
2023/02/02 10:49:40;;;;;;;21.60;9.50;;;;;;;1.53;100.00;94966.71;107026;1275;22529;-69
2023/02/02 10:52:09;;;;;;;22.60;10.10;;;;;;;1.49;100.00;94981.83;107035;1275;25500;-68
2023/02/02 10:54:49;;;;;;;18.50;8.20;;;;;;;1.43;100.00;94998.70;107093;1275;25434;-69
2023/02/02 10:57:59;;;;;;;17.20;8.00;;;;;;;1.39;100.00;95018.98;107047;1276;22617;-69
2023/02/02 11:00:37;;;;;;;18.80;7.60;;;;;;;1.32;100.00;95040.77;106923;1276;25331;-73
2023/02/02 11:03:08;;;;;;;20.10;8.20;;;;;;;1.32;100.00;95065.21;106259;1276;1002694;-72
2023/02/02 11:08:29;;;;;;;17.50;8.70;;;;;;;1.40;100.00;95095.70;106933;1276;26519;-69
2023/02/02 11:11:17;;;;;;;17.60;8.80;;;;;;;1.50;100.00;95102.45;107045;1276;25344;-67
2023/02/02 11:14:09;;;;;;;16.90;7.80;;;;;;;1.62;100.00;95095.98;107007;1275;22535;-67
2023/02/02 11:16:40;;;;;;;18.80;8.50;;;;;;;1.71;100.00;95111.13;107125;1275;25351;-71
2023/02/02 11:19:21;;;;;;;17.30;8.60;;;;;;;1.70;100.00;95144.29;107484;1270;25667;-70
2023/02/02 11:21:52;;;;;;;19.70;8.60;;;;;;;1.64;100.00;95190.34;107075;1269;24209;-69
2023/02/02 11:24:21;;;;;;;18.20;8.40;;;;;;;1.63;100.00;95211.17;107070;1273;22747;-70
2023/02/02 11:26:54;;;;;;;18.50;8.30;;;;;;;1.62;100.00;95227.98;107164;1270;22568;-74
2023/02/02 11:29:26;;;;;;;18.50;8.20;;;;;;;1.62;100.00;95241.52;107211;1275;24076;-73
2023/02/02 11:31:55;;;;;;;16.70;7.10;;;;;;;1.59;100.00;95260.73;107311;1270;22979;-72
2023/02/02 11:34:25;;;;;;;16.10;7.40;;;;;;;1.56;100.00;95286.25;107025;1271;24000;-69
2023/02/02 11:37:11;;;;;;;15.90;7.20;;;;;;;1.56;100.00;95305.84;106965;1276;25297;-75
2023/02/02 11:39:41;;;;;;;17.10;8.50;;;;;;;1.54;100.00;95335.98;107300;1276;24335;-74
2023/02/02 11:42:13;;;;;;;17.70;7.40;;;;;;;1.57;100.00;95358.57;106452;1276;1003130;-73
2023/02/02 11:44:54;;;;;;;14.20;6.70;;;;;;;1.61;100.00;95364.85;107445;1276;25303;-74
2023/02/02 11:47:27;;;;;;;12.40;5.70;;;;;;;1.66;100.00;95383.13;106967;1276;22546;-71
2023/02/02 11:49:57;;;;;;;31.70;13.50;;;;;;;1.73;100.00;95398.96;106972;1276;22678;-69
2023/02/02 11:52:30;;;;;;;20.50;8.50;;;;;;;1.79;100.00;95418.11;106991;1269;22576;-70
2023/02/02 11:55:01;;;;;;;14.30;6.60;;;;;;;1.79;100.00;95450.11;107040;1273;22524;-68
2023/02/02 11:57:30;;;;;;;16.50;6.40;;;;;;;1.80;100.00;95484.51;107449;1276;25262;-73
2023/02/02 12:00:16;;;;;;;12.80;6.20;;;;;;;1.82;100.00;95519.98;106960;1271;25347;-69
2023/02/02 12:02:47;;;;;;;11.60;6.10;;;;;;;1.89;100.00;95556.83;106179;1273;1003798;-67
2023/02/02 12:05:19;;;;;;;10.30;5.80;;;;;;;1.97;100.00;95607.70;106247;1273;1003242;-69
2023/02/02 12:07:48;;;;;;;10.90;6.00;;;;;;;1.94;100.00;95659.63;106933;1269;24326;-70
2023/02/02 12:10:40;;;;;;;11.50;5.40;;;;;;;1.86;100.00;95738.89;106983;1274;22524;-70
2023/02/02 12:13:42;;;;;;;10.10;5.00;;;;;;;1.80;100.00;95811.03;107528;1270;23774;-76
2023/02/02 12:16:24;;;;;;;11.40;5.00;;;;;;;1.71;100.00;95877.70;107399;1276;24189;-75
2023/02/02 12:19:16;;;;;;;15.10;5.10;;;;;;;1.63;100.00;95936.48;108012;1254;23780;-75
2023/02/02 12:22:18;;;;;;;10.90;5.00;;;;;;;1.57;100.00;96000.88;107769;1270;22584;-72
2023/02/02 12:25:13;;;;;;;13.10;5.80;;;;;;;1.49;100.00;96067.34;107134;1276;24199;-72
2023/02/02 12:27:42;;;;;;;12.60;5.80;;;;;;;1.44;100.00;96137.89;106837;1277;25450;-73
2023/02/02 12:30:27;;;;;;;13.90;6.40;;;;;;;1.39;100.00;96199.05;107066;1276;22560;-72
2023/02/02 12:33:07;;;;;;;11.80;5.90;;;;;;;1.37;100.00;96234.52;107110;1275;22533;-72
2023/02/02 12:35:59;;;;;;;16.20;6.50;;;;;;;1.38;100.00;96262.54;106239;1275;1002864;-71
2023/02/02 12:38:45;;;;;;;17.10;6.70;;;;;;;1.39;100.00;96287.67;107230;1275;25422;-74
2023/02/02 12:41:17;;;;;;;13.80;6.20;;;;;;;1.41;100.00;96308.84;107341;1275;22538;-71
2023/02/02 12:44:14;;;;;;;12.70;5.80;;;;;;;1.40;100.00;96331.45;107191;1254;24226;-73
2023/02/02 12:47:13;;;;;;;8.70;4.40;;;;;;;1.37;100.00;96347.55;106562;1273;1003416;-72
2023/02/02 12:50:11;;;;;;;5.90;4.00;;;;;;;1.29;100.00;96366.36;107021;1275;25271;-71
2023/02/02 12:53:05;;;;;;;10.00;4.80;;;;;;;1.23;100.00;96385.85;106433;1275;1003228;-72
2023/02/02 12:55:56;;;;;;;11.50;5.30;;;;;;;1.18;100.00;96406.27;107017;1270;25425;-70
2023/02/02 12:58:38;;;;;;;9.30;4.90;;;;;;;1.16;100.00;96421.20;107153;1273;22543;-73
2023/02/02 13:01:55;;;;;;;10.00;5.40;;;;;;;1.14;100.00;96434.39;107102;1269;24251;-73
2023/02/02 13:04:33;;;;;;;14.10;6.00;;;;;;;1.12;100.00;96437.86;106270;1283;22544;-71
2023/02/02 13:07:50;;;;;;;8.00;4.50;;;;;;;1.13;100.00;96449.81;106813;1254;22610;-73
2023/02/02 13:10:36;;;;;;;10.80;5.70;;;;;;;1.16;100.00;96448.22;107067;1273;22565;-73
2023/02/02 13:13:16;;;;;;;12.20;5.70;;;;;;;1.19;100.00;96457.16;106863;1270;22524;-70
2023/02/02 13:15:47;;;;;;;11.90;5.80;;;;;;;1.20;100.00;96470.02;106919;1270;25303;-68
2023/02/02 13:18:26;;;;;;;10.40;5.30;;;;;;;1.20;100.00;96477.67;107092;1273;23893;-70
2023/02/02 13:21:09;;;;;;;12.30;6.00;;;;;;;1.20;100.00;96481.16;106781;1275;24304;-68
2023/02/02 13:23:49;;;;;;;12.10;5.80;;;;;;;1.23;100.00;96486.16;107107;1273;25373;-68
2023/02/02 13:26:19;;;;;;;10.90;5.30;;;;;;;1.25;100.00;96489.29;107224;1275;24220;-70
2023/02/02 13:29:10;;;;;;;11.10;5.90;;;;;;;1.26;100.00;96492.08;107057;1269;25265;-70
2023/02/02 13:32:22;;;;;;;10.90;5.30;;;;;;;1.28;100.00;96490.60;107162;1275;22545;-71
2023/02/02 13:35:09;;;;;;;13.50;6.20;;;;;;;1.27;100.00;96493.34;107529;1275;24298;-74
2023/02/02 13:37:38;;;;;;;14.00;6.30;;;;;;;1.25;100.00;96511.97;107412;1275;24040;-74
2023/02/02 13:40:25;;;;;;;20.30;10.10;;;;;;;1.25;100.00;96527.45;107317;1275;25462;-75
2023/02/02 13:43:02;;;;;;;17.60;8.10;;;;;;;1.26;100.00;96522.86;106990;1269;25347;-70
2023/02/02 13:46:01;;;;;;;15.90;7.00;;;;;;;1.27;100.00;96530.89;106948;1275;22523;-68
2023/02/02 13:49:07;;;;;;;13.00;6.40;;;;;;;1.26;100.00;96533.64;106796;1275;22534;-67
2023/02/02 13:51:49;;;;;;;12.10;6.20;;;;;;;1.26;100.00;96539.49;106836;1270;26602;-68
2023/02/02 13:54:59;;;;;;;16.50;6.50;;;;;;;1.25;100.00;96556.81;106684;1270;24234;-74
2023/02/02 13:57:44;;;;;;;16.90;6.90;;;;;;;1.23;100.00;96552.66;107347;1268;24044;-76
2023/02/02 14:00:21;;;;;;;13.40;6.60;;;;;;;1.20;100.00;96575.93;107568;1268;25445;-75
2023/02/02 14:03:02;;;;;;;15.40;6.30;;;;;;;1.18;100.00;96584.56;107631;1269;22658;-75
2023/02/02 14:05:37;;;;;;;13.40;6.40;;;;;;;1.16;100.00;96586.93;107624;1269;25437;-74
2023/02/02 14:08:22;;;;;;;20.40;8.40;;;;;;;1.14;100.00;96599.73;107973;1270;25426;-70
2023/02/02 14:10:56;;;;;;;19.30;8.00;;;;;;;1.11;100.00;96604.75;107492;1270;25466;-74
2023/02/02 14:31:59;;;;;;;20.40;9.40;;;;;;;1.27;100.00;96191.02;104452;1296;557761;-71
2023/02/02 14:34:27;;;;;;;19.60;7.90;;;;;;;1.29;100.00;96212.45;106213;1273;201972;-72
2023/02/02 14:37:22;;;;;;;26.60;13.80;;;;;;;1.25;100.00;96299.79;106355;1274;25360;-70
2023/02/02 14:40:09;;;;;;;20.90;10.20;;;;;;;1.20;100.00;96355.83;106553;1272;25343;-71
2023/02/02 14:46:11;;;;;;;21.50;10.00;;;;;;;1.08;100.00;96445.78;106606;1277;25257;-72
2023/02/02 14:48:48;;;;;;;20.10;9.20;;;;;;;1.01;100.00;96484.68;107892;1272;25446;-71
2023/02/02 14:51:28;;;;;;;19.50;9.40;;;;;;;0.95;100.00;96523.77;108771;1273;22516;-72
2023/02/02 14:54:03;;;;;;;24.60;10.70;;;;;;;0.90;100.00;96557.16;106595;1273;1003496;-73
2023/02/02 14:56:48;;;;;;;23.10;10.70;;;;;;;0.88;100.00;96582.95;106634;1280;24664;-70
2023/02/02 14:59:37;;;;;;;23.80;10.40;;;;;;;0.87;100.00;96599.52;106622;1280;24291;-71
2023/02/02 15:02:18;;;;;;;21.90;9.70;;;;;;;0.85;100.00;96620.14;106686;1273;24924;-72
2023/02/02 15:04:47;;;;;;;26.60;11.10;;;;;;;0.83;100.00;96635.24;106696;1279;22569;-72
2023/02/02 15:07:22;;;;;;;21.10;9.20;;;;;;;0.81;100.00;96659.46;106542;1279;26592;-70
2023/02/02 15:09:55;;;;;;;18.40;8.10;;;;;;;0.77;100.00;96671.83;106676;1279;25309;-71
2023/02/02 15:12:38;;;;;;;21.60;9.50;;;;;;;0.72;100.00;96690.08;106669;1279;22549;-72
2023/02/02 18:25:51;;;;;;;20.90;9.10;;;;;;;-0.66;100.00;97982.29;105655;1296;557765;-72
2023/02/02 18:28:20;;;;;;;22.10;9.70;;;;;;;-0.51;100.00;97878.94;106803;1285;203638;-76
2023/02/02 18:30:49;;;;;;;20.20;9.10;;;;;;;-0.46;100.00;97807.60;107736;1274;23910;-74
2023/02/02 18:33:18;;;;;;;18.60;8.30;;;;;;;-0.41;100.00;97685.23;108009;1274;25578;-74
2023/02/02 18:35:48;;;;;;;19.30;8.80;;;;;;;-0.35;100.00;97523.63;107720;1274;25955;-77
2023/02/02 18:38:18;;;;;;;20.80;9.30;;;;;;;-0.31;100.00;97341.05;107701;1274;22539;-73
2023/02/02 18:40:54;;;;;;;18.00;8.50;;;;;;;-0.27;100.00;97162.82;107891;1274;25482;-73
2023/02/02 18:43:25;;;;;;;22.50;9.10;;;;;;;-0.23;100.00;96936.25;107733;1274;25313;-72
2023/02/02 18:46:01;;;;;;;28.10;9.50;;;;;;;-0.18;100.00;96748.73;107692;1274;22546;-73
2023/02/02 18:48:30;;;;;;;24.30;9.70;;;;;;;-0.14;100.00;96567.16;106919;1274;1002825;-75
2023/02/02 18:51:06;;;;;;;22.10;9.70;;;;;;;-0.11;100.00;96466.20;107763;1274;23815;-73
2023/02/02 18:53:35;;;;;;;22.00;9.50;;;;;;;-0.07;100.00;96380.67;107793;1274;25433;-73
2023/02/02 18:56:07;;;;;;;24.90;10.90;;;;;;;-0.04;100.00;96345.10;107638;1275;25434;-73
2023/02/02 18:58:37;;;;;;;26.70;10.20;;;;;;;-0.02;100.00;96315.45;107731;1274;26521;-73
2023/02/02 19:01:09;;;;;;;20.70;9.40;;;;;;;0.02;100.00;96305.63;107656;1274;22637;-72
2023/02/02 19:03:39;;;;;;;24.60;9.50;;;;;;;0.06;100.00;96297.14;107759;1274;26555;-72
2023/02/02 19:08:59;;;;;;;18.30;8.10;;;;;;;0.11;100.00;96287.44;107817;1274;25367;-71
2023/02/02 19:11:41;;;;;;;14.70;7.60;;;;;;;0.14;100.00;96303.11;107744;1274;22543;-71
2023/02/02 19:14:14;;;;;;;19.70;8.50;;;;;;;0.18;100.00;96301.95;107784;1274;22528;-72
2023/02/02 19:16:45;;;;;;;14.40;7.10;;;;;;;0.22;100.00;96308.23;107687;1274;22527;-72
2023/02/02 19:19:23;;;;;;;19.00;7.30;;;;;;;0.26;100.00;96310.65;107487;1274;22547;-73
2023/02/02 19:21:54;;;;;;;18.30;8.20;;;;;;;0.31;100.00;96309.84;107560;1274;23435;-72
2023/02/02 19:24:25;;;;;;;16.40;7.20;;;;;;;0.34;100.00;96315.27;107622;1274;22683;-73
2023/02/02 19:26:54;;;;;;;16.50;7.30;;;;;;;0.38;100.00;96320.67;107648;1274;23893;-71
2023/02/02 19:29:25;;;;;;;18.50;6.80;;;;;;;0.41;100.00;96328.30;106795;1274;1003485;-73
2023/02/02 19:32:03;;;;;;;13.70;6.50;;;;;;;0.43;100.00;96336.04;107555;1274;25357;-73
2023/02/02 19:34:35;;;;;;;14.50;7.00;;;;;;;0.44;100.00;96335.13;107536;1274;26652;-74
2023/02/02 19:37:19;;;;;;;14.30;6.70;;;;;;;0.45;100.00;96348.97;107503;1274;25424;-73
2023/02/02 19:39:47;;;;;;;15.90;6.40;;;;;;;0.45;100.00;96351.09;107440;1274;25495;-72
2023/02/02 19:42:17;;;;;;;18.80;7.10;;;;;;;0.45;100.00;96366.59;106810;1274;1003806;-73
2023/02/02 19:44:48;;;;;;;13.10;6.70;;;;;;;0.45;100.00;96373.98;106797;1274;1003241;-71
2023/02/02 19:47:27;;;;;;;15.10;6.80;;;;;;;0.44;100.00;96379.42;107576;1274;23823;-74
2023/02/02 19:49:55;;;;;;;12.90;5.80;;;;;;;0.44;100.00;96385.96;107618;1274;22523;-72
2023/02/02 19:52:24;;;;;;;15.20;6.70;;;;;;;0.43;100.00;96402.48;107621;1274;23791;-72
2023/02/02 19:54:53;;;;;;;14.90;7.40;;;;;;;0.41;100.00;96408.89;106721;1274;1003058;-72
2023/02/02 19:57:35;;;;;;;16.80;7.00;;;;;;;0.40;100.00;96422.02;107631;1274;26484;-71